Terminal Aerodrome Forecast
Issued by NWS Wilmington, OH

Current Version | Previous Version | Graphics & Text | Print | Product List | Glossary On
Versions: 1 2 3 4 5 6 7 8 9 10 11 12 13 14 15 16 17 18 19 20 21 22 23 24 25 26 27 28 29 30 31
166
FTUS41 KILN 050810 AAA
TAFCVG
TAF AMD
KCVG 050810Z 0508/0612 31004KT P6SM VCSH OVC025
     FM051000 31004KT P6SM OVC015
     FM051300 34008KT P6SM BKN025
     FM052100 35015G24KT P6SM VCSH BKN040
     FM060100 34008KT P6SM SCT045=

USA.gov is the U.S. government's official web portal to all federal, state and local government web resources and services.